Time;durP1;ratioP1;P1;durP2;ratioP2;P2;SDS_P1;SDS_P2;PMS_P1;PMS_P2;Temp;Humidity;BMP_temperature;BMP_pressure;BME280_temperature;BME280_humidity;BME280_pressure;Samples;Min_cycle;Max_cycle;Signal;HPM_P1;HPM_P2
2020/12/28 00:00:43;;;;;;;1.00;0.70;;;7.50;99.90;;;;;;5074319;28;20408;-65
2020/12/28 00:03:09;;;;;;;0.80;0.60;;;7.50;99.90;;;;;;5074062;28;20256;-65
2020/12/28 00:05:34;;;;;;;1.50;0.70;;;7.50;99.90;;;;;;5073935;28;20179;-66
2020/12/28 00:08:00;;;;;;;0.90;0.73;;;7.50;99.90;;;;;;5074234;28;21987;-66
2020/12/28 00:10:26;;;;;;;2.13;0.70;;;7.30;99.90;;;;;;5073449;28;20174;-66
2020/12/28 00:12:52;;;;;;;2.80;0.53;;;7.10;99.90;;;;;;5074270;28;20248;-66
2020/12/28 00:15:19;;;;;;;0.70;0.60;;;7.00;99.90;;;;;;5073916;28;20169;-66
2020/12/28 00:17:46;;;;;;;0.97;0.73;;;6.90;99.90;;;;;;5073654;28;20400;-65
2020/12/28 00:20:12;;;;;;;0.90;0.70;;;6.80;99.90;;;;;;5073765;28;20538;-64
2020/12/28 00:22:38;;;;;;;1.07;0.90;;;6.70;99.90;;;;;;5074209;28;20396;-64
2020/12/28 00:25:05;;;;;;;1.73;0.80;;;6.60;99.90;;;;;;5073951;28;20190;-64
2020/12/28 00:27:30;;;;;;;1.23;0.90;;;6.70;99.90;;;;;;5074120;28;20404;-64
2020/12/28 00:29:56;;;;;;;0.80;0.70;;;6.60;99.90;;;;;;5073853;28;20412;-64
2020/12/28 00:32:21;;;;;;;1.43;1.10;;;6.60;99.90;;;;;;5073640;28;20169;-66
2020/12/28 00:34:47;;;;;;;0.90;0.70;;;6.60;99.90;;;;;;5073460;28;20170;-64
2020/12/28 00:37:12;;;;;;;1.40;0.90;;;6.50;99.90;;;;;;5073791;28;20248;-64
2020/12/28 00:39:38;;;;;;;1.57;0.90;;;6.40;99.90;;;;;;5073931;28;20189;-64
2020/12/28 00:42:04;;;;;;;0.80;0.60;;;6.40;99.90;;;;;;5073842;28;20170;-64
2020/12/28 00:44:29;;;;;;;0.87;0.77;;;6.50;99.90;;;;;;5073684;28;20545;-64
2020/12/28 00:46:55;;;;;;;1.37;1.00;;;6.40;99.90;;;;;;5074454;28;20170;-63
2020/12/28 00:49:20;;;;;;;3.17;0.80;;;6.40;99.90;;;;;;5074025;28;20186;-64
2020/12/28 00:51:46;;;;;;;3.47;1.10;;;6.30;99.90;;;;;;5073681;28;20215;-63
2020/12/28 00:54:11;;;;;;;1.00;0.90;;;6.30;99.90;;;;;;5073942;28;20531;-63
2020/12/28 00:56:37;;;;;;;1.00;0.90;;;6.20;99.90;;;;;;5082130;28;20169;-64
2020/12/28 00:59:02;;;;;;;1.00;0.90;;;6.20;99.90;;;;;;5094049;28;20193;-64
2020/12/28 01:01:28;;;;;;;0.80;0.73;;;6.20;99.90;;;;;;5094083;28;20171;-63
2020/12/28 01:03:53;;;;;;;1.90;1.63;;;6.30;99.90;;;;;;5093918;28;20271;-64
2020/12/28 01:06:19;;;;;;;0.80;0.63;;;6.40;99.90;;;;;;5093779;28;20234;-64
2020/12/28 01:08:44;;;;;;;1.10;0.93;;;6.30;99.90;;;;;;5093601;28;20181;-65
2020/12/28 01:11:10;;;;;;;1.17;0.87;;;6.30;99.90;;;;;;5093612;28;20533;-65
2020/12/28 01:13:36;;;;;;;1.10;0.87;;;6.30;99.90;;;;;;5093974;28;20241;-64
2020/12/28 01:16:01;;;;;;;1.30;1.20;;;6.30;99.90;;;;;;5094209;28;20576;-66
2020/12/28 01:18:27;;;;;;;1.00;0.90;;;6.30;99.90;;;;;;5093533;28;20200;-65
2020/12/28 01:20:53;;;;;;;1.30;0.97;;;6.30;99.90;;;;;;5093614;28;20648;-65
2020/12/28 01:23:18;;;;;;;1.20;1.00;;;6.30;99.90;;;;;;5093545;28;20193;-66
2020/12/28 01:25:44;;;;;;;1.40;0.90;;;6.20;99.90;;;;;;5093799;28;20170;-65
2020/12/28 01:28:10;;;;;;;2.83;1.20;;;6.30;99.90;;;;;;5093757;28;20193;-65
2020/12/28 01:30:35;;;;;;;1.53;1.10;;;6.40;99.90;;;;;;5093945;28;20214;-66
2020/12/28 01:33:01;;;;;;;0.73;0.70;;;6.40;99.90;;;;;;5093292;28;20188;-66
2020/12/28 01:35:28;;;;;;;1.00;0.83;;;6.20;99.90;;;;;;5093346;28;20193;-65
2020/12/28 01:37:54;;;;;;;1.23;1.13;;;6.10;99.90;;;;;;5093058;28;20489;-66
2020/12/28 01:40:19;;;;;;;1.67;1.00;;;6.00;99.90;;;;;;5081010;28;20408;-66
2020/12/28 01:42:45;;;;;;;1.10;0.97;;;6.10;99.90;;;;;;5072889;28;20473;-66
2020/12/28 01:45:10;;;;;;;1.00;0.90;;;6.20;99.90;;;;;;5072857;28;20194;-65
2020/12/28 01:47:39;;;;;;;1.27;1.00;;;6.30;99.90;;;;;;5072014;28;20166;-65
2020/12/28 01:50:04;;;;;;;1.40;1.13;;;6.20;99.90;;;;;;5072914;28;20190;-65
2020/12/28 01:52:30;;;;;;;1.33;0.90;;;6.20;99.90;;;;;;5072839;28;20810;-63
2020/12/28 01:54:57;;;;;;;1.30;1.20;;;6.30;99.90;;;;;;5072990;28;20166;-65
2020/12/28 01:57:23;;;;;;;1.43;0.90;;;6.30;99.90;;;;;;5073212;28;20889;-65
2020/12/28 01:59:48;;;;;;;1.63;1.20;;;6.30;99.90;;;;;;5072774;28;20427;-65
2020/12/28 02:02:18;;;;;;;1.20;1.10;;;6.20;99.90;;;;;;5074459;28;20265;-65
2020/12/28 02:04:44;;;;;;;1.20;1.10;;;6.20;99.90;;;;;;5076146;28;20204;-65
2020/12/28 02:07:11;;;;;;;1.87;1.00;;;6.20;99.90;;;;;;5076484;28;20500;-65
2020/12/28 02:09:36;;;;;;;1.43;1.10;;;6.00;99.90;;;;;;5075584;28;20185;-64
2020/12/28 02:12:02;;;;;;;1.30;1.00;;;6.00;99.90;;;;;;5076594;28;20892;-65
2020/12/28 02:14:28;;;;;;;1.13;1.03;;;6.10;99.90;;;;;;5076572;28;20170;-64
2020/12/28 02:16:54;;;;;;;0.90;0.90;;;6.10;99.90;;;;;;5076721;28;20556;-65
2020/12/28 02:19:19;;;;;;;1.10;1.00;;;6.10;99.90;;;;;;5076012;28;20628;-65
2020/12/28 02:21:45;;;;;;;1.30;1.03;;;6.30;99.90;;;;;;5076546;28;20420;-65
2020/12/28 02:24:11;;;;;;;1.30;1.00;;;6.50;99.90;;;;;;5076186;28;20665;-64
2020/12/28 02:26:36;;;;;;;1.37;1.10;;;6.70;99.90;;;;;;5076073;28;20170;-65
2020/12/28 02:29:02;;;;;;;1.40;1.13;;;6.90;99.90;;;;;;5075939;28;20229;-65
2020/12/28 02:31:28;;;;;;;1.33;1.00;;;7.10;99.90;;;;;;5076176;28;20625;-64
2020/12/28 02:33:53;;;;;;;1.20;1.10;;;7.10;99.90;;;;;;5076153;28;20404;-65
2020/12/28 02:36:19;;;;;;;1.10;1.00;;;7.30;99.90;;;;;;5075617;28;20622;-65
2020/12/28 02:38:45;;;;;;;1.60;0.90;;;7.30;99.90;;;;;;5075915;28;20223;-65
2020/12/28 02:41:10;;;;;;;1.10;1.00;;;7.10;99.90;;;;;;5075588;28;20670;-65
2020/12/28 02:43:36;;;;;;;1.87;1.10;;;6.90;99.90;;;;;;5081037;28;20190;-65
2020/12/28 02:46:01;;;;;;;1.10;1.00;;;7.00;99.90;;;;;;5096152;28;20222;-64
2020/12/28 02:48:27;;;;;;;1.20;1.07;;;7.00;99.90;;;;;;5096107;28;20656;-65
2020/12/28 02:50:52;;;;;;;1.47;1.13;;;7.00;99.90;;;;;;5095969;28;20157;-65
2020/12/28 02:53:18;;;;;;;0.80;0.80;;;6.90;99.90;;;;;;5096098;28;20176;-65
2020/12/28 02:55:44;;;;;;;1.73;1.20;;;7.00;99.90;;;;;;5095842;28;20652;-65
2020/12/28 02:58:09;;;;;;;1.10;1.00;;;7.00;99.90;;;;;;5096139;28;20661;-65
2020/12/28 03:00:35;;;;;;;1.20;1.00;;;6.80;99.90;;;;;;5108913;28;20171;-64
2020/12/28 03:03:01;;;;;;;1.93;1.10;;;6.70;99.90;;;;;;5116379;28;20659;-65
2020/12/28 03:05:27;;;;;;;1.20;1.10;;;6.60;99.90;;;;;;5116257;28;20167;-65
2020/12/28 03:07:52;;;;;;;1.43;0.90;;;6.70;99.90;;;;;;5098087;28;20174;-65
2020/12/28 03:10:18;;;;;;;1.53;1.43;;;6.70;99.90;;;;;;5075709;28;20922;-64
2020/12/28 03:12:43;;;;;;;1.10;1.00;;;6.60;99.90;;;;;;5075204;28;20257;-64
2020/12/28 03:15:09;;;;;;;1.10;1.00;;;6.60;99.90;;;;;;5075208;28;20178;-64
2020/12/28 03:17:34;;;;;;;1.23;1.00;;;6.70;99.90;;;;;;5075194;28;20262;-63
2020/12/28 03:20:00;;;;;;;0.93;0.83;;;6.60;99.90;;;;;;5075073;28;20276;-65
2020/12/28 03:22:25;;;;;;;1.30;1.20;;;6.70;99.90;;;;;;5075551;28;20177;-66
2020/12/28 03:24:51;;;;;;;1.03;0.93;;;6.70;99.90;;;;;;5075269;28;20221;-63
2020/12/28 03:27:16;;;;;;;1.20;1.03;;;6.70;99.90;;;;;;5074995;28;20173;-65
2020/12/28 03:29:42;;;;;;;0.83;0.83;;;6.50;99.90;;;;;;5074923;28;20549;-63
2020/12/28 03:32:08;;;;;;;0.90;0.90;;;6.50;99.90;;;;;;5075133;28;20262;-65
2020/12/28 03:34:33;;;;;;;1.03;0.80;;;6.40;99.90;;;;;;5074835;28;20580;-65
2020/12/28 03:36:59;;;;;;;1.10;1.00;;;6.30;99.90;;;;;;5074606;28;20197;-66
2020/12/28 03:39:24;;;;;;;1.10;0.90;;;6.20;99.90;;;;;;5074488;28;20669;-65
2020/12/28 03:41:50;;;;;;;1.30;0.90;;;6.20;99.90;;;;;;5074701;28;20540;-66
2020/12/28 03:44:15;;;;;;;1.10;1.00;;;6.20;99.90;;;;;;5074682;28;20201;-65
2020/12/28 03:46:41;;;;;;;0.90;0.70;;;6.30;99.90;;;;;;5074880;28;20169;-65
2020/12/28 03:49:06;;;;;;;1.43;1.30;;;6.30;99.90;;;;;;5074591;28;20214;-65
2020/12/28 03:51:32;;;;;;;1.87;1.27;;;6.30;99.90;;;;;;5074732;28;20260;-65
2020/12/28 03:53:57;;;;;;;1.00;0.90;;;6.10;99.90;;;;;;5074189;28;20166;-65
2020/12/28 03:56:23;;;;;;;1.03;0.80;;;6.20;99.90;;;;;;5074487;28;20541;-65
2020/12/28 03:58:49;;;;;;;1.00;0.90;;;6.00;99.90;;;;;;5074438;28;20194;-65
2020/12/28 04:01:15;;;;;;;1.27;1.00;;;6.10;99.90;;;;;;5074876;28;20624;-65
2020/12/28 04:03:40;;;;;;;0.93;0.83;;;6.20;99.90;;;;;;5074485;28;20232;-64
2020/12/28 04:06:06;;;;;;;1.10;1.00;;;6.10;99.90;;;;;;5074496;28;20466;-66
2020/12/28 04:08:32;;;;;;;0.80;0.80;;;6.10;99.90;;;;;;5073801;28;20649;-65
2020/12/28 04:10:57;;;;;;;1.10;0.90;;;6.00;99.90;;;;;;5073749;28;20210;-65
2020/12/28 04:13:23;;;;;;;1.77;0.90;;;6.00;99.90;;;;;;5074123;28;20182;-66
2020/12/28 04:15:50;;;;;;;1.20;0.80;;;6.00;99.90;;;;;;5074750;28;20197;-65
2020/12/28 04:18:16;;;;;;;2.27;0.93;;;6.00;99.90;;;;;;5074090;28;20681;-63
2020/12/28 04:20:42;;;;;;;0.93;0.83;;;6.10;99.90;;;;;;5074035;28;20498;-63
2020/12/28 04:23:07;;;;;;;1.10;1.00;;;5.90;99.90;;;;;;5073664;28;20495;-65
2020/12/28 04:25:33;;;;;;;0.83;0.70;;;5.90;99.90;;;;;;5073152;28;20170;-65
2020/12/28 04:27:58;;;;;;;0.80;0.63;;;5.80;99.90;;;;;;5074103;28;20162;-66
2020/12/28 04:30:24;;;;;;;1.73;0.80;;;5.80;99.90;;;;;;5074141;28;20696;-65
2020/12/28 04:32:50;;;;;;;1.20;1.10;;;5.90;99.90;;;;;;5073766;28;20523;-65
2020/12/28 04:35:15;;;;;;;0.80;0.80;;;5.80;99.90;;;;;;5073674;28;20170;-65
2020/12/28 04:37:41;;;;;;;0.93;0.83;;;5.60;99.90;;;;;;5073235;28;20174;-66
2020/12/28 04:40:06;;;;;;;2.97;1.00;;;5.50;99.90;;;;;;5073482;28;20688;-65
2020/12/28 04:42:32;;;;;;;1.20;1.00;;;5.60;99.90;;;;;;5073507;28;20185;-65
2020/12/28 04:44:59;;;;;;;0.70;0.70;;;5.50;99.90;;;;;;5073820;28;20198;-66
2020/12/28 04:47:25;;;;;;;1.30;1.10;;;5.60;99.90;;;;;;5073726;28;20170;-66
2020/12/28 04:49:51;;;;;;;0.80;0.80;;;5.80;99.90;;;;;;5073755;28;20443;-65
2020/12/28 04:52:17;;;;;;;0.90;0.60;;;5.80;99.90;;;;;;5076038;28;20408;-66
2020/12/28 04:54:46;;;;;;;1.00;0.80;;;5.60;99.90;;;;;;5093953;28;20423;-64
2020/12/28 04:57:12;;;;;;;1.70;1.00;;;5.60;99.90;;;;;;5094238;28;20422;-65
2020/12/28 04:59:38;;;;;;;0.90;0.80;;;5.50;99.90;;;;;;5093596;28;20443;-65
2020/12/28 05:02:05;;;;;;;1.13;0.73;;;5.30;99.90;;;;;;5093546;28;20508;-66
2020/12/28 05:04:30;;;;;;;1.83;0.97;;;5.30;99.90;;;;;;5093705;28;20208;-65
2020/12/28 05:06:57;;;;;;;1.20;0.80;;;5.30;99.90;;;;;;5093777;28;20836;-65
2020/12/28 05:09:22;;;;;;;1.00;0.80;;;5.40;99.90;;;;;;5092223;28;20564;-65
2020/12/28 05:11:55;;;;;;;1.83;1.00;;;5.40;99.90;;;;;;5073957;28;20408;-65
2020/12/28 05:14:21;;;;;;;0.70;0.70;;;5.30;99.90;;;;;;5074046;28;20553;-65
2020/12/28 05:16:48;;;;;;;0.90;0.80;;;5.30;99.90;;;;;;5073386;28;20462;-64
2020/12/28 05:19:13;;;;;;;1.00;0.90;;;5.40;99.90;;;;;;5073170;28;20455;-64
2020/12/28 05:21:40;;;;;;;0.70;0.70;;;5.50;99.90;;;;;;5073363;28;20766;-65
2020/12/28 05:24:13;;;;;;;1.40;1.07;;;5.40;99.90;;;;;;5073004;28;20232;-64
2020/12/28 05:26:43;;;;;;;1.17;0.90;;;5.60;99.90;;;;;;5073440;28;20404;-65
2020/12/28 05:29:15;;;;;;;1.60;0.83;;;5.60;99.90;;;;;;5073232;28;20434;-65
2020/12/28 05:31:43;;;;;;;1.03;0.70;;;5.60;99.90;;;;;;5073179;28;20393;-65
2020/12/28 05:34:17;;;;;;;2.10;1.10;;;5.60;99.90;;;;;;5073271;28;20983;-65
2020/12/28 05:36:46;;;;;;;1.37;1.10;;;5.60;99.90;;;;;;5082863;28;20846;-64
2020/12/28 05:39:15;;;;;;;1.30;1.20;;;5.70;99.90;;;;;;5096732;28;20427;-66
2020/12/28 05:41:51;;;;;;;1.10;1.00;;;5.80;99.90;;;;;;5077029;28;20960;-65
2020/12/28 05:44:17;;;;;;;1.00;0.90;;;5.80;99.90;;;;;;5076914;28;20469;-64
2020/12/28 05:46:42;;;;;;;1.93;1.00;;;5.90;99.90;;;;;;5077182;28;20412;-64
2020/12/28 05:49:09;;;;;;;0.93;0.83;;;6.00;99.90;;;;;;5076612;28;20193;-65
2020/12/28 05:51:35;;;;;;;1.40;0.60;;;6.00;99.90;;;;;;5076853;28;20188;-65
2020/12/28 05:54:09;;;;;;;1.47;0.60;;;5.90;99.90;;;;;;5076712;28;20412;-64
2020/12/28 05:56:35;;;;;;;0.97;0.70;;;5.90;99.90;;;;;;5077117;28;20385;-65
2020/12/28 05:59:02;;;;;;;1.00;0.70;;;6.00;99.90;;;;;;5076870;28;20515;-64
2020/12/28 06:01:34;;;;;;;1.10;0.83;;;6.00;99.90;;;;;;5077436;28;20454;-65
2020/12/28 06:04:01;;;;;;;0.80;0.80;;;6.00;99.90;;;;;;5076762;28;20452;-65
2020/12/28 06:06:28;;;;;;;1.17;0.97;;;6.10;99.90;;;;;;5076929;28;20499;-64
2020/12/28 06:08:53;;;;;;;1.07;0.73;;;6.10;99.90;;;;;;5076657;28;20424;-65
2020/12/28 06:11:20;;;;;;;1.53;1.10;;;6.20;99.90;;;;;;5076163;28;20816;-65
2020/12/28 06:13:45;;;;;;;1.83;1.20;;;6.30;99.90;;;;;;5077516;28;20178;-65
2020/12/28 06:16:22;;;;;;;1.20;0.90;;;6.30;99.90;;;;;;5076532;28;20481;-65
2020/12/28 06:18:57;;;;;;;0.80;0.80;;;6.40;99.90;;;;;;5076280;28;20292;-65
2020/12/28 06:21:37;;;;;;;1.50;1.00;;;6.40;99.90;;;;;;5076723;28;20421;-65
2020/12/28 06:24:03;;;;;;;1.00;0.77;;;6.30;99.90;;;;;;5076280;28;20447;-65
2020/12/28 06:26:29;;;;;;;1.37;1.10;;;6.20;99.90;;;;;;5076435;28;20400;-65
2020/12/28 06:29:08;;;;;;;1.00;0.90;;;6.20;99.90;;;;;;5076145;28;20420;-64
2020/12/28 06:31:34;;;;;;;0.80;0.70;;;6.10;99.90;;;;;;5076452;28;20673;-65
2020/12/28 06:34:00;;;;;;;1.30;1.20;;;6.00;99.90;;;;;;5076077;28;20408;-65
2020/12/28 06:36:26;;;;;;;1.17;1.07;;;6.10;99.90;;;;;;5076000;28;20411;-63
2020/12/28 06:38:56;;;;;;;1.40;0.73;;;6.10;99.90;;;;;;5075623;28;20193;-65
2020/12/28 06:41:30;;;;;;;1.87;1.00;;;6.20;99.90;;;;;;5076046;28;20424;-65
2020/12/28 06:44:00;;;;;;;5.43;4.27;;;6.10;99.90;;;;;;5075800;28;20510;-65
2020/12/28 06:46:27;;;;;;;1.57;1.10;;;6.00;99.90;;;;;;5075821;28;20407;-65
2020/12/28 06:48:54;;;;;;;1.17;1.07;;;6.00;99.90;;;;;;5074994;28;20424;-65
2020/12/28 06:51:22;;;;;;;1.50;1.40;;;6.00;99.90;;;;;;5092264;28;20406;-65
2020/12/28 06:53:52;;;;;;;1.63;0.97;;;5.90;99.90;;;;;;5095995;28;20437;-65
2020/12/28 06:56:18;;;;;;;1.53;1.37;;;5.90;99.90;;;;;;5095764;28;20965;-65
2020/12/28 06:58:44;;;;;;;2.23;0.97;;;6.00;99.90;;;;;;5096151;28;20423;-65
2020/12/28 07:01:10;;;;;;;1.07;0.97;;;6.00;99.90;;;;;;5096106;28;20419;-65
2020/12/28 07:03:35;;;;;;;1.03;0.73;;;6.00;99.90;;;;;;5095605;28;20280;-65
2020/12/28 07:06:04;;;;;;;1.20;1.10;;;5.90;99.90;;;;;;5096775;28;20260;-65
2020/12/28 07:08:32;;;;;;;1.20;1.10;;;5.80;99.90;;;;;;5095593;28;20189;-65
2020/12/28 07:11:05;;;;;;;1.17;1.00;;;5.70;99.90;;;;;;5080431;28;20408;-65
2020/12/28 07:13:31;;;;;;;1.53;1.20;;;5.80;99.90;;;;;;5075379;28;20848;-65
2020/12/28 07:16:03;;;;;;;1.40;1.30;;;5.80;99.90;;;;;;5075538;28;20409;-65
2020/12/28 07:18:29;;;;;;;1.40;1.30;;;5.80;99.90;;;;;;5075345;28;20416;-65
2020/12/28 07:20:56;;;;;;;1.40;1.30;;;5.80;99.90;;;;;;5075364;28;20389;-64
2020/12/28 07:23:26;;;;;;;1.20;1.07;;;5.90;99.90;;;;;;5075180;28;20178;-65
2020/12/28 07:26:08;;;;;;;1.40;1.10;;;5.90;99.90;;;;;;5075270;28;20415;-65
2020/12/28 07:28:35;;;;;;;2.30;1.10;;;6.10;99.90;;;;;;5075315;28;20445;-64
2020/12/28 07:31:03;;;;;;;1.33;1.00;;;6.10;99.90;;;;;;5075421;28;20415;-65
2020/12/28 07:33:28;;;;;;;0.90;0.90;;;6.00;99.90;;;;;;5075155;28;20769;-65
2020/12/28 07:36:08;;;;;;;3.10;0.90;;;6.10;99.90;;;;;;5075166;28;20408;-65
2020/12/28 07:38:35;;;;;;;1.80;0.90;;;6.10;99.90;;;;;;5075056;28;20692;-65
2020/12/28 07:41:01;;;;;;;1.67;0.90;;;6.00;99.90;;;;;;5074786;28;20416;-65
2020/12/28 07:43:28;;;;;;;1.80;1.00;;;6.00;99.90;;;;;;5074934;28;20482;-65
2020/12/28 07:46:16;;;;;;;1.00;0.90;;;6.00;99.90;;;;;;5074905;28;20174;-65
2020/12/28 07:48:43;;;;;;;2.80;1.60;;;5.90;99.90;;;;;;5074720;28;20810;-65
2020/12/28 07:51:13;;;;;;;1.07;0.97;;;5.90;99.90;;;;;;5074658;28;20404;-65
2020/12/28 07:53:43;;;;;;;1.00;0.87;;;5.90;99.90;;;;;;5074368;28;20483;-65
2020/12/28 07:56:28;;;;;;;1.17;1.07;;;6.10;99.90;;;;;;5074287;28;20404;-65
2020/12/28 07:59:32;;;;;;;1.27;1.00;;;6.00;99.90;;;;;;5074653;28;20423;-65
2020/12/28 08:02:04;;;;;;;1.20;1.10;;;6.00;99.90;;;;;;5074235;28;20432;-66
2020/12/28 08:04:30;;;;;;;1.33;1.23;;;6.00;99.90;;;;;;5074489;28;20866;-64
2020/12/28 08:06:58;;;;;;;1.43;1.33;;;6.00;99.90;;;;;;5074529;28;20490;-64
2020/12/28 08:09:24;;;;;;;1.40;1.20;;;6.00;99.90;;;;;;5072988;28;20439;-65
2020/12/28 08:12:00;;;;;;;1.80;1.10;;;6.00;99.90;;;;;;5074135;28;20418;-65
2020/12/28 08:14:26;;;;;;;2.90;1.27;;;6.20;99.90;;;;;;5074263;28;20408;-64
2020/12/28 08:16:52;;;;;;;1.33;1.23;;;6.40;99.90;;;;;;5074028;28;20803;-63
2020/12/28 08:19:25;;;;;;;1.80;1.53;;;6.50;99.90;;;;;;5074353;28;20509;-61
2020/12/28 08:21:57;;;;;;;2.83;2.30;;;6.60;99.90;;;;;;5092032;28;20517;-61
2020/12/28 08:24:23;;;;;;;1.30;1.20;;;6.60;99.90;;;;;;5090894;28;20448;-61
2020/12/28 08:26:50;;;;;;;2.20;1.63;;;6.60;99.90;;;;;;5091100;28;20573;-61
2020/12/28 08:29:16;;;;;;;1.80;1.70;;;6.70;99.90;;;;;;5076869;28;20839;-62
2020/12/28 08:31:42;;;;;;;1.80;1.60;;;6.60;99.90;;;;;;5050736;28;20401;-62
2020/12/28 08:34:11;;;;;;;1.60;1.50;;;6.70;99.90;;;;;;5050864;28;20492;-62
2020/12/28 08:36:50;;;;;;;2.67;1.23;;;6.70;99.90;;;;;;5070422;28;20397;-61
2020/12/28 08:39:18;;;;;;;1.27;0.90;;;6.50;99.90;;;;;;5069855;28;20423;-62
2020/12/28 08:41:54;;;;;;;1.20;0.80;;;6.50;99.90;;;;;;5070355;28;20952;-62
2020/12/28 08:44:28;;;;;;;1.00;0.90;;;6.40;99.90;;;;;;5070729;28;20411;-62
2020/12/28 08:46:53;;;;;;;1.37;0.70;;;6.30;99.90;;;;;;5070391;28;20873;-62
2020/12/28 08:49:33;;;;;;;1.23;0.80;;;6.40;99.90;;;;;;5070217;28;20457;-62
2020/12/28 08:52:12;;;;;;;0.97;0.90;;;6.40;99.90;;;;;;5072273;28;20193;-62
2020/12/28 08:54:37;;;;;;;1.37;1.20;;;6.40;99.90;;;;;;5050238;28;20500;-62
2020/12/28 08:57:03;;;;;;;1.80;1.30;;;6.60;99.90;;;;;;5050519;28;20488;-62
2020/12/28 08:59:29;;;;;;;2.40;1.40;;;6.60;99.90;;;;;;5049790;28;20183;-62
2020/12/28 09:01:56;;;;;;;1.63;1.50;;;6.80;99.90;;;;;;5049922;28;20409;-61
2020/12/28 09:04:22;;;;;;;2.20;1.07;;;6.90;99.90;;;;;;5052024;28;20177;-63
2020/12/28 09:06:51;;;;;;;1.40;0.90;;;7.00;99.90;;;;;;5070115;28;20440;-64
2020/12/28 09:09:18;;;;;;;1.20;0.80;;;6.90;99.90;;;;;;5069464;28;20420;-63
2020/12/28 09:11:44;;;;;;;0.70;0.70;;;6.70;99.90;;;;;;5070026;28;20401;-62
2020/12/28 09:14:10;;;;;;;1.07;0.97;;;6.40;99.90;;;;;;5069697;28;20415;-62
2020/12/28 09:16:36;;;;;;;1.17;1.07;;;6.30;99.90;;;;;;5069647;28;20392;-63
2020/12/28 09:19:02;;;;;;;0.80;0.80;;;6.30;99.90;;;;;;5069795;28;20447;-63
2020/12/28 09:21:28;;;;;;;0.80;0.80;;;6.30;99.90;;;;;;5069533;28;20451;-65
2020/12/28 09:23:53;;;;;;;1.57;1.20;;;6.30;99.90;;;;;;5069246;28;21003;-65
2020/12/28 09:26:19;;;;;;;1.40;1.20;;;6.30;99.90;;;;;;5069670;28;20174;-66
2020/12/28 09:28:45;;;;;;;2.83;1.20;;;6.30;99.90;;;;;;5069108;28;20588;-65
2020/12/28 09:31:10;;;;;;;2.13;1.50;;;6.30;99.90;;;;;;5068194;28;20181;-65
2020/12/28 09:33:36;;;;;;;1.40;1.30;;;6.30;99.90;;;;;;5055859;28;20178;-65
2020/12/28 09:36:03;;;;;;;1.40;1.30;;;6.30;99.90;;;;;;5056253;28;20261;-65
2020/12/28 09:38:28;;;;;;;1.40;1.30;;;6.40;99.90;;;;;;5055666;28;20429;-65
2020/12/28 09:40:54;;;;;;;2.10;1.90;;;6.40;99.90;;;;;;5056266;28;20471;-65
2020/12/28 09:43:20;;;;;;;1.60;1.50;;;6.50;99.90;;;;;;5056321;28;20583;-64
2020/12/28 09:45:45;;;;;;;2.10;1.63;;;6.50;99.90;;;;;;5056222;28;20167;-64
2020/12/28 09:48:11;;;;;;;1.70;1.60;;;6.60;99.90;;;;;;5055663;28;20261;-64
2020/12/28 09:50:36;;;;;;;1.60;1.50;;;6.70;99.90;;;;;;5054542;28;20216;-64
2020/12/28 09:53:03;;;;;;;1.63;1.53;;;6.80;99.90;;;;;;5055669;28;20540;-64
2020/12/28 09:55:28;;;;;;;1.70;1.60;;;6.90;99.90;;;;;;5055628;28;20166;-65
2020/12/28 09:57:54;;;;;;;2.73;1.70;;;7.00;99.90;;;;;;5055132;28;21088;-65
2020/12/28 10:00:19;;;;;;;1.53;1.43;;;6.90;99.90;;;;;;5055514;28;20202;-63
2020/12/28 10:02:46;;;;;;;3.13;1.50;;;7.00;99.90;;;;;;5055828;28;20174;-65
2020/12/28 10:05:12;;;;;;;2.23;1.87;;;6.90;99.90;;;;;;5055540;28;20166;-65
2020/12/28 10:07:38;;;;;;;2.33;2.13;;;6.70;99.90;;;;;;5055498;28;20420;-64
2020/12/28 10:10:05;;;;;;;2.97;1.73;;;6.70;99.90;;;;;;5054464;28;21224;-64
2020/12/28 10:12:31;;;;;;;3.13;2.10;;;6.70;99.90;;;;;;5055136;28;20244;-64
2020/12/28 10:14:56;;;;;;;2.13;2.03;;;6.50;99.90;;;;;;5055543;28;20396;-64
2020/12/28 10:17:22;;;;;;;3.13;2.00;;;6.70;99.90;;;;;;5055380;28;20170;-64
2020/12/28 10:19:47;;;;;;;1.90;1.70;;;6.60;99.90;;;;;;5055009;28;20261;-64
2020/12/28 10:22:14;;;;;;;1.97;1.77;;;6.80;99.90;;;;;;5055550;28;20237;-65
2020/12/28 10:24:40;;;;;;;2.90;1.73;;;6.90;99.90;;;;;;5054959;28;20165;-64
2020/12/28 10:27:06;;;;;;;3.30;2.30;;;6.90;99.90;;;;;;5054490;28;20420;-64
2020/12/28 10:29:31;;;;;;;7.33;2.60;;;7.00;99.90;;;;;;5054710;28;20790;-64
2020/12/28 10:31:57;;;;;;;4.13;2.30;;;7.20;99.90;;;;;;5055211;28;20186;-65
2020/12/28 10:34:26;;;;;;;2.67;2.40;;;7.30;99.90;;;;;;5054820;28;20634;-64
2020/12/28 10:36:52;;;;;;;3.07;2.80;;;7.40;99.90;;;;;;5054548;28;20424;-62
2020/12/28 10:39:18;;;;;;;3.10;2.80;;;7.40;99.90;;;;;;5054473;28;20436;-65
2020/12/28 10:41:44;;;;;;;3.13;2.83;;;7.40;99.90;;;;;;5053701;28;20801;-65
2020/12/28 10:44:09;;;;;;;3.00;2.80;;;7.50;99.90;;;;;;5053848;28;20405;-64
2020/12/28 10:46:37;;;;;;;3.47;3.17;;;7.40;99.90;;;;;;5054218;28;20256;-63
2020/12/28 10:49:07;;;;;;;4.07;3.17;;;7.30;99.90;;;;;;5054624;28;20428;-63
2020/12/28 10:51:35;;;;;;;4.97;3.47;;;7.30;99.90;;;;;;5054624;28;20413;-63
2020/12/28 10:54:01;;;;;;;4.30;3.90;;;7.20;99.90;;;;;;5055095;28;20754;-64
2020/12/28 10:56:29;;;;;;;3.90;3.40;;;7.00;99.90;;;;;;5054561;28;20431;-64
2020/12/28 10:58:56;;;;;;;3.60;3.27;;;6.90;99.90;;;;;;5055375;28;20559;-64
2020/12/28 11:01:24;;;;;;;3.67;3.37;;;7.00;99.90;;;;;;5055134;28;20448;-65
2020/12/28 11:03:51;;;;;;;3.70;3.40;;;6.90;99.90;;;;;;5056783;28;20421;-64
2020/12/28 11:06:18;;;;;;;3.77;3.47;;;6.90;99.90;;;;;;5054577;28;20444;-65
2020/12/28 11:08:43;;;;;;;4.20;3.80;;;6.80;99.90;;;;;;5054277;28;20567;-64
2020/12/28 11:11:09;;;;;;;4.87;3.70;;;6.80;99.90;;;;;;5053861;28;20443;-64
2020/12/28 11:13:35;;;;;;;3.80;3.50;;;6.80;99.90;;;;;;5054351;28;20178;-65
2020/12/28 11:16:01;;;;;;;3.80;3.50;;;6.70;99.90;;;;;;5054066;28;20428;-64
2020/12/28 11:18:26;;;;;;;4.10;3.70;;;6.90;99.90;;;;;;5054642;28;20197;-65
2020/12/28 11:20:52;;;;;;;4.80;4.10;;;7.00;99.90;;;;;;5053120;28;20205;-64
2020/12/28 11:23:17;;;;;;;4.53;4.13;;;6.90;99.90;;;;;;5043565;28;20258;-64
2020/12/28 11:25:43;;;;;;;3.47;3.17;;;6.90;99.90;;;;;;5034023;28;20634;-63
2020/12/28 11:28:09;;;;;;;3.53;3.23;;;6.90;99.90;;;;;;5034344;28;20533;-65
2020/12/28 11:30:34;;;;;;;2.97;2.63;;;7.00;99.90;;;;;;5034191;28;20171;-64
2020/12/28 11:33:00;;;;;;;3.10;2.90;;;7.20;99.90;;;;;;5035103;28;20183;-63
2020/12/28 11:35:26;;;;;;;3.10;2.80;;;7.30;99.90;;;;;;5034262;28;20197;-64
2020/12/28 11:37:51;;;;;;;3.40;3.00;;;7.10;99.90;;;;;;5034287;28;20195;-64
2020/12/28 11:40:17;;;;;;;3.93;3.60;;;7.10;99.90;;;;;;5038345;28;20197;-65
2020/12/28 11:42:43;;;;;;;3.70;3.00;;;7.20;99.90;;;;;;5053854;28;20202;-64
2020/12/28 11:45:09;;;;;;;3.43;3.13;;;7.10;99.90;;;;;;5053689;28;20174;-64
2020/12/28 11:47:38;;;;;;;3.60;2.90;;;7.20;99.90;;;;;;5053783;28;20159;-62
2020/12/28 11:50:04;;;;;;;3.60;3.30;;;7.30;99.90;;;;;;5053850;28;20444;-62
2020/12/28 11:52:30;;;;;;;3.00;2.80;;;7.40;99.90;;;;;;5053682;28;20402;-64
2020/12/28 11:54:56;;;;;;;2.50;2.30;;;7.40;99.90;;;;;;5053343;28;20440;-65
2020/12/28 11:57:21;;;;;;;3.07;2.77;;;7.50;99.90;;;;;;5053265;28;20224;-64
2020/12/28 11:59:47;;;;;;;3.10;2.90;;;7.50;99.90;;;;;;5053245;28;20197;-64
2020/12/28 12:02:13;;;;;;;3.40;3.20;;;7.40;99.90;;;;;;5053738;28;20172;-64
2020/12/28 12:04:53;;;;;;;3.13;2.93;;;7.30;99.90;;;;;;5053435;28;20168;-64
2020/12/28 12:07:21;;;;;;;3.80;3.40;;;7.20;99.90;;;;;;5054006;28;20181;-64
2020/12/28 12:09:47;;;;;;;3.30;3.00;;;7.00;99.90;;;;;;5053375;28;20464;-65
2020/12/28 12:12:13;;;;;;;3.20;2.97;;;7.10;99.90;;;;;;5051173;28;20475;-64
2020/12/28 12:14:39;;;;;;;3.47;2.87;;;7.30;99.90;;;;;;5053656;28;20807;-63
2020/12/28 12:17:05;;;;;;;3.60;3.13;;;7.50;99.90;;;;;;5053886;28;20921;-63
2020/12/28 12:19:31;;;;;;;4.80;3.53;;;7.60;99.90;;;;;;5053632;28;20429;-64
2020/12/28 12:21:56;;;;;;;2.87;2.67;;;7.80;99.90;;;;;;5053623;28;20455;-63
2020/12/28 12:24:22;;;;;;;3.13;2.83;;;7.70;99.90;;;;;;5053218;28;20166;-64
2020/12/28 12:26:48;;;;;;;3.00;2.80;;;7.50;99.90;;;;;;5052636;28;20627;-64
2020/12/28 12:29:13;;;;;;;5.43;3.57;;;7.50;99.90;;;;;;5053073;28;20269;-64
2020/12/28 12:31:39;;;;;;;3.50;3.20;;;7.40;99.90;;;;;;5053131;28;20266;-65
2020/12/28 12:34:05;;;;;;;3.17;2.87;;;7.40;99.90;;;;;;5053044;28;20190;-64
2020/12/28 12:36:30;;;;;;;4.03;3.17;;;7.30;99.90;;;;;;5052176;28;20181;-64
2020/12/28 12:38:56;;;;;;;2.80;2.37;;;7.20;99.90;;;;;;5053039;28;20194;-64
2020/12/28 12:41:21;;;;;;;3.00;2.80;;;7.20;99.90;;;;;;5054692;28;20539;-62
2020/12/28 12:43:48;;;;;;;2.93;2.63;;;7.30;99.90;;;;;;5058393;28;20253;-62
2020/12/28 12:46:14;;;;;;;3.30;3.00;;;7.60;99.90;;;;;;5058906;28;20171;-62
2020/12/28 12:48:41;;;;;;;3.57;3.27;;;7.70;99.90;;;;;;5058412;28;20951;-62
2020/12/28 12:51:08;;;;;;;3.53;2.93;;;7.90;99.90;;;;;;5058048;28;20421;-62
2020/12/28 12:53:33;;;;;;;2.70;2.50;;;8.00;99.90;;;;;;5058059;28;20492;-63
2020/12/28 12:55:59;;;;;;;2.77;2.53;;;7.80;99.90;;;;;;5057606;28;20444;-62